Time;durP1;ratioP1;P1;durP2;ratioP2;P2;SDS_P1;SDS_P2;PMS_P1;PMS_P2;Temp;Humidity;BMP_temperature;BMP_pressure;BME280_temperature;BME280_humidity;BME280_pressure;Samples;Min_cycle;Max_cycle;Signal;HPM_P1;HPM_P2
2024/04/15 00:00:23;;;;;;;;;4.17;3.50;;;;;15.63;48.86;101722.81;2183963;25;2750213;-74
2024/04/15 00:01:37;;;;;;;;;4.17;2.83;;;;;15.59;50.58;101718.56;2181198;26;2748133;-75
2024/04/15 00:02:50;;;;;;;;;2.00;2.00;;;;;15.59;50.60;101722.97;2167190;26;2750221;-74
2024/04/15 00:04:04;;;;;;;;;3.67;2.00;;;;;15.55;51.01;101727.53;2169058;26;2729384;-75
2024/04/15 00:05:18;;;;;;;;;4.67;2.00;;;;;15.55;49.49;101724.91;2183285;26;2743971;-74
2024/04/15 00:06:32;;;;;;;;;2.00;2.00;;;;;15.49;50.11;101723.34;2183873;25;2744021;-75
2024/04/15 00:07:46;;;;;;;;;2.17;1.33;;;;;15.46;49.77;101715.50;2182780;26;2737685;-75
2024/04/15 00:08:59;;;;;;;;;3.50;1.83;;;;;15.46;49.46;101718.16;2185204;26;2737737;-75
2024/04/15 00:10:10;;;;;;;;;3.67;3.67;;;;;15.43;50.20;101714.78;2155677;26;2748124;-75
2024/04/15 00:11:24;;;;;;;;;3.00;3.00;;;;;15.37;50.02;101707.91;2194822;26;2746054;-75
2024/04/15 00:12:38;;;;;;;;;1.83;1.00;;;;;15.35;49.99;101707.09;2207314;26;2739121;-75
2024/04/15 00:13:52;;;;;;;;;6.00;3.00;;;;;15.33;49.88;101698.34;2182624;25;2754378;-75
2024/04/15 00:15:05;;;;;;;;;5.00;1.83;;;;;15.29;49.86;101701.13;2171497;26;2748101;-75
2024/04/15 00:16:19;;;;;;;;;2.83;1.00;;;;;15.33;50.54;101695.72;2176317;26;2735658;-75
2024/04/15 00:17:30;;;;;;;;;2.67;2.67;;;;;15.34;50.36;101684.19;2143348;26;2754394;-75
2024/04/15 00:18:44;;;;;;;;;4.33;2.50;;;;;15.34;49.75;101687.69;2207665;26;2741863;-75
2024/04/15 00:19:58;;;;;;;;;2.00;1.00;;;;;15.33;50.16;101683.34;2195780;26;2739880;-75
2024/04/15 00:21:12;;;;;;;;;2.00;1.83;;;;;15.35;49.83;101685.91;2169531;26;2733624;-75
2024/04/15 00:22:25;;;;;;;;;4.33;2.17;;;;;15.38;50.25;101688.47;2180196;26;2739780;-75
2024/04/15 00:23:39;;;;;;;;;3.33;3.00;;;;;15.41;50.85;101689.19;2167564;26;2739843;-75
2024/04/15 00:24:53;;;;;;;;;3.00;1.50;;;;;15.44;50.32;101693.50;2157069;26;2740845;-75
2024/04/15 00:26:07;;;;;;;;;4.17;2.00;;;;;15.47;50.34;101696.03;2168146;26;2737724;-75
2024/04/15 00:27:20;;;;;;;;;4.67;2.00;;;;;15.45;49.60;101681.13;2180620;26;2736756;-75
2024/04/15 00:28:34;;;;;;;;;0.00;0.00;;;;;15.47;49.37;101685.44;2178237;26;2735625;-75
2024/04/15 00:29:48;;;;;;;;;4.33;3.00;;;;;15.47;49.57;101685.44;2178831;26;2743969;-75
2024/04/15 00:31:02;;;;;;;;;4.00;2.17;;;;;15.50;50.22;101688.00;2183260;26;2741883;-75
2024/04/15 00:32:15;;;;;;;;;2.00;2.00;;;;;15.56;49.93;101688.66;2184034;26;2728315;-75
2024/04/15 00:33:27;;;;;;;;;4.00;3.33;;;;;15.53;50.21;101682.53;2147370;26;2750252;-75
2024/04/15 00:34:40;;;;;;;;;2.67;2.67;;;;;15.51;50.42;101687.03;2192315;26;2732527;-75
2024/04/15 00:35:51;;;;;;;;;3.00;3.00;;;;;15.53;50.53;101685.19;2142657;26;2754402;-75
2024/04/15 00:37:05;;;;;;;;;3.00;2.00;;;;;15.56;50.32;101689.50;2194570;26;2733519;-75
2024/04/15 00:38:19;;;;;;;;;2.50;1.17;;;;;15.58;49.59;101682.38;2194562;26;2730747;-75
2024/04/15 00:39:33;;;;;;;;;1.83;1.83;;;;;15.57;49.29;101685.09;2168400;26;2732489;-75
2024/04/15 00:40:47;;;;;;;;;6.33;4.17;;;;;15.59;51.09;101691.19;2169263;26;2741275;-75
2024/04/15 00:42:01;;;;;;;;;2.83;2.83;;;;;15.61;50.35;101692.84;2181741;26;2738763;-75
2024/04/15 00:43:14;;;;;;;;;4.17;2.00;;;;;15.63;50.92;101695.47;2184612;25;2743962;-75
2024/04/15 00:44:33;;;;;;;;;2.00;2.00;;;;;15.63;49.26;101679.56;2193127;25;2737689;-75
2024/04/15 00:45:47;;;;;;;;;1.00;1.00;;;;;15.64;50.00;101681.28;2169967;26;2735723;-75
2024/04/15 00:47:04;;;;;;;;;1.00;1.00;;;;;15.66;49.93;101679.41;2181628;26;2746085;-75
2024/04/15 00:48:19;;;;;;;;;2.83;2.83;;;;;15.65;50.70;101675.06;2159567;26;2733610;-75
2024/04/15 00:49:34;;;;;;;;;2.00;1.00;;;;;15.61;49.92;101676.09;2179061;26;2736683;-75
2024/04/15 00:50:49;;;;;;;;;4.67;3.00;;;;;15.59;50.00;101667.34;2181724;26;2729372;-75
2024/04/15 00:52:05;;;;;;;;;1.50;1.33;;;;;15.59;49.52;101670.84;2168798;26;2732512;-75
2024/04/15 00:53:22;;;;;;;;;2.00;2.00;;;;;15.60;50.42;101669.06;2166998;26;2743987;-75
2024/04/15 00:54:37;;;;;;;;;1.17;1.17;;;;;15.60;49.34;101675.25;2169442;26;2734577;-75
2024/04/15 00:55:52;;;;;;;;;2.67;2.67;;;;;15.60;50.43;101664.66;2148451;26;2748178;-74
2024/04/15 00:57:06;;;;;;;;;5.17;2.17;;;;;15.60;50.44;101661.13;2192639;26;2738843;-74
2024/04/15 00:58:20;;;;;;;;;3.33;2.67;;;;;15.57;48.99;101675.34;2183824;26;2733580;-74
2024/04/15 00:59:35;;;;;;;;;3.00;1.33;;;;;15.56;49.42;101672.75;2184050;25;2737701;-75
2024/04/15 01:00:49;;;;;;;;;3.17;2.17;;;;;15.54;49.67;101670.16;2181957;26;2734654;-75
2024/04/15 01:02:04;;;;;;;;;2.50;2.50;;;;;15.54;50.08;101680.75;2163835;26;2738191;-75
2024/04/15 01:03:18;;;;;;;;;2.83;1.17;;;;;15.56;49.01;101662.16;2162072;26;2737724;-74
2024/04/15 01:04:32;;;;;;;;;2.50;2.50;;;;;15.46;48.65;101672.28;2168926;26;2736694;-74
2024/04/15 01:05:45;;;;;;;;;4.00;2.00;;;;;15.40;49.64;101662.78;2167439;26;2737704;-74
2024/04/15 01:06:59;;;;;;;;;2.17;2.17;;;;;15.33;49.64;101666.56;2167291;26;2742929;-75
2024/04/15 01:08:13;;;;;;;;;2.17;2.17;;;;;15.29;49.26;101671.97;2168448;26;2746065;-74
2024/04/15 01:09:27;;;;;;;;;1.00;1.00;;;;;15.22;49.37;101670.50;2168224;26;2738743;-75
2024/04/15 01:10:41;;;;;;;;;2.83;2.17;;;;;15.15;49.68;101669.00;2168005;26;2734132;-74
2024/04/15 01:11:54;;;;;;;;;2.00;2.00;;;;;15.06;49.67;101665.75;2172880;26;2730476;-74
2024/04/15 01:13:08;;;;;;;;;3.17;3.00;;;;;15.01;49.46;101657.16;2172354;26;2739887;-75
2024/04/15 01:14:22;;;;;;;;;3.00;2.17;;;;;14.97;49.59;101663.47;2171937;26;2746109;-75
2024/04/15 01:15:36;;;;;;;;;3.67;2.50;;;;;14.97;48.94;101666.09;2171073;25;2738751;-75
2024/04/15 01:16:50;;;;;;;;;3.00;1.33;;;;;14.93;49.41;101653.91;2167712;26;2746054;-75
2024/04/15 01:18:04;;;;;;;;;2.17;1.83;;;;;14.87;49.91;101648.81;2170439;26;2737984;-74
2024/04/15 01:19:17;;;;;;;;;2.00;2.00;;;;;14.88;50.29;101656.72;2181340;26;2746022;-75
2024/04/15 01:20:31;;;;;;;;;3.67;1.67;;;;;14.90;50.27;101646.94;2181549;26;2738030;-75
2024/04/15 01:21:45;;;;;;;;;4.33;2.33;;;;;14.94;50.30;101650.31;2176101;26;2746037;-75
2024/04/15 01:23:22;;;;;;;;;2.50;2.00;;;;;14.96;50.25;101649.34;2169224;26;2729391;-75
2024/04/15 01:24:36;;;;;;;;;1.00;1.00;;;;;14.96;50.17;101654.66;2183471;25;2729352;-75
2024/04/15 01:25:50;;;;;;;;;3.50;1.00;;;;;14.95;50.16;101649.41;2180924;26;2737701;-75
2024/04/15 01:27:04;;;;;;;;;1.50;1.33;;;;;14.91;50.28;101645.16;2171396;26;2741874;-74
2024/04/15 01:28:19;;;;;;;;;2.17;2.17;;;;;14.94;49.82;101648.56;2162729;26;2733990;-75
2024/04/15 01:29:33;;;;;;;;;2.83;2.83;;;;;14.94;49.65;101648.56;2173917;26;2735637;-75
2024/04/15 01:30:47;;;;;;;;;2.00;1.00;;;;;14.91;50.10;101645.16;2173424;26;2729371;-75
2024/04/15 01:32:01;;;;;;;;;4.50;2.83;;;;;14.88;50.20;101637.34;2183146;25;2733570;-75
2024/04/15 01:33:15;;;;;;;;;1.00;1.00;;;;;14.82;49.75;101636.59;2181877;26;2732517;-74
2024/04/15 01:34:29;;;;;;;;;3.00;1.00;;;;;14.83;49.84;101638.34;2181362;26;2740229;-75
2024/04/15 01:35:42;;;;;;;;;2.00;1.17;;;;;14.83;49.51;101638.34;2182439;25;2733561;-75
2024/04/15 01:36:56;;;;;;;;;2.50;1.17;;;;;14.81;49.21;101639.31;2169586;26;2739804;-75
2024/04/15 01:38:10;;;;;;;;;2.67;1.33;;;;;14.73;49.46;101632.53;2182031;25;2744058;-75
2024/04/15 01:39:23;;;;;;;;;4.50;2.00;;;;;14.70;49.09;101637.91;2174850;26;2736682;-75
2024/04/15 01:40:37;;;;;;;;;1.83;1.00;;;;;14.70;49.53;101629.13;2157168;26;2730484;-75
2024/04/15 01:41:51;;;;;;;;;1.33;1.33;;;;;14.69;49.19;101638.81;2169516;26;2737737;-75
2024/04/15 01:43:05;;;;;;;;;2.50;2.17;;;;;14.66;50.41;101635.44;2181250;26;2742909;-75
2024/04/15 01:44:19;;;;;;;;;2.33;1.33;;;;;14.62;49.61;101630.25;2179106;26;2737705;-75
2024/04/15 01:45:33;;;;;;;;;2.83;2.67;;;;;14.61;49.68;101636.47;2160760;26;2740897;-75
2024/04/15 01:46:46;;;;;;;;;3.33;1.50;;;;;14.58;49.55;101625.13;2154807;26;2736651;-75
2024/04/15 01:48:01;;;;;;;;;1.17;1.00;;;;;14.56;49.75;101627.84;2175143;26;2729484;-75
2024/04/15 01:49:15;;;;;;;;;2.00;2.00;;;;;14.52;49.50;101629.72;2176032;26;2735617;-74
2024/04/15 01:50:29;;;;;;;;;3.00;1.00;;;;;14.50;48.87;101633.34;2168209;26;2735900;-75
2024/04/15 01:51:42;;;;;;;;;1.50;1.50;;;;;14.50;50.05;101633.34;2167435;26;2741899;-75
2024/04/15 01:52:56;;;;;;;;;2.00;1.00;;;;;14.46;49.64;101629.06;2174028;26;2735035;-75
2024/04/15 01:54:10;;;;;;;;;2.00;1.00;;;;;14.44;50.44;101628.28;2182156;26;2733541;-75
2024/04/15 01:55:24;;;;;;;;;0.67;0.67;;;;;14.42;50.20;101632.75;2169471;26;2733569;-75
2024/04/15 01:56:37;;;;;;;;;1.83;1.50;;;;;14.38;50.60;101632.00;2169471;26;2740054;-74
2024/04/15 01:57:51;;;;;;;;;3.00;3.00;;;;;14.33;51.05;101637.44;2181956;26;2741143;-75
2024/04/15 01:59:07;;;;;;;;;3.17;1.83;;;;;14.31;51.32;101636.63;2182451;26;2739799;-75
2024/04/15 02:00:20;;;;;;;;;1.50;1.17;;;;;14.30;50.91;101642.81;2178854;26;2736156;-75
2024/04/15 02:01:37;;;;;;;;;2.17;2.00;;;;;14.25;51.45;101632.41;2167741;26;2746122;-74
2024/04/15 02:02:48;;;;;;;;;5.00;2.67;;;;;14.28;51.03;101634.97;2155114;26;2749301;-75
2024/04/15 02:04:02;;;;;;;;;3.00;2.17;;;;;14.21;51.47;101644.00;2207819;25;2742339;-74
2024/04/15 02:05:16;;;;;;;;;2.33;1.00;;;;;14.22;51.34;101636.97;2207454;26;2739796;-74
2024/04/15 02:06:29;;;;;;;;;3.83;2.00;;;;;14.23;50.99;101642.19;2168312;26;2743987;-75
2024/04/15 02:07:40;;;;;;;;;2.67;2.67;;;;;14.20;52.14;101633.50;2145066;26;2745042;-75
2024/04/15 02:08:54;;;;;;;;;1.33;1.33;;;;;14.21;51.75;101635.22;2208628;26;2738750;-74
2024/04/15 02:10:08;;;;;;;;;0.67;0.67;;;;;14.15;52.29;101637.16;2206047;26;2746080;-74
2024/04/15 02:11:22;;;;;;;;;0.67;0.00;;;;;14.10;52.21;101639.06;2181294;26;2729437;-75
2024/04/15 02:12:36;;;;;;;;;2.00;2.00;;;;;14.11;51.86;101640.81;2158673;26;2737708;-75
2024/04/15 02:13:49;;;;;;;;;2.33;2.17;;;;;14.08;52.27;101635.63;2168959;26;2743950;-75
2024/04/15 02:15:03;;;;;;;;;2.00;2.00;;;;;14.10;51.82;101628.50;2169221;26;2741903;-74
2024/04/15 02:16:17;;;;;;;;;2.33;2.33;;;;;14.07;52.21;101628.63;2180085;26;2746030;-75
2024/04/15 02:17:31;;;;;;;;;3.67;2.00;;;;;14.11;52.47;101632.88;2180229;25;2741931;-75
2024/04/15 02:18:44;;;;;;;;;2.17;1.50;;;;;14.10;52.61;101631.16;2167613;26;2744257;-74
2024/04/15 02:19:58;;;;;;;;;3.17;2.17;;;;;14.08;52.29;101625.06;2166975;26;2738747;-75
2024/04/15 02:21:12;;;;;;;;;3.33;3.00;;;;;14.12;52.60;101631.97;2166123;26;2746050;-75
2024/04/15 02:22:26;;;;;;;;;3.67;1.33;;;;;14.12;52.17;101631.97;2167659;26;2741904;-74
2024/04/15 02:23:39;;;;;;;;;1.67;1.00;;;;;14.06;51.79;101625.13;2167308;26;2733542;-74
2024/04/15 02:24:53;;;;;;;;;1.50;1.50;;;;;14.06;52.17;101621.59;2166697;26;2741903;-75
2024/04/15 02:26:07;;;;;;;;;2.67;2.00;;;;;14.07;52.15;101624.19;2167702;26;2735621;-75
2024/04/15 02:27:20;;;;;;;;;3.50;3.00;;;;;14.09;52.17;101628.56;2176243;26;2737744;-74
2024/04/15 02:28:35;;;;;;;;;4.33;2.00;;;;;14.04;52.23;101628.72;2168143;26;2738799;-74
2024/04/15 02:29:49;;;;;;;;;3.00;1.83;;;;;13.95;52.14;101633.38;2170339;26;2739851;-74
2024/04/15 02:31:02;;;;;;;;;2.50;2.50;;;;;13.92;52.65;101630.00;2182589;26;2744011;-74
2024/04/15 02:32:18;;;;;;;;;3.50;1.50;;;;;13.91;52.65;101634.41;2181364;26;2737719;-74
2024/04/15 02:33:32;;;;;;;;;2.00;2.00;;;;;13.91;52.67;101628.25;2183607;25;2741887;-74
2024/04/15 02:34:46;;;;;;;;;2.00;2.00;;;;;13.90;52.21;101627.38;2181999;26;2743967;-75
2024/04/15 02:36:00;;;;;;;;;4.33;2.67;;;;;13.84;52.54;101620.53;2181276;25;2748121;-74
2024/04/15 02:37:13;;;;;;;;;5.33;2.17;;;;;13.79;52.99;101616.31;2177236;25;2746085;-74
2024/04/15 02:38:27;;;;;;;;;3.33;2.83;;;;;13.75;53.02;101612.94;2166914;26;2746051;-75
2024/04/15 02:39:41;;;;;;;;;3.00;3.00;;;;;13.73;52.98;101614.72;2167623;26;2737996;-75
2024/04/15 02:40:55;;;;;;;;;1.83;1.83;;;;;13.70;53.64;101617.50;2168905;26;2744217;-75
2024/04/15 02:42:09;;;;;;;;;1.83;1.83;;;;;13.66;53.18;101611.44;2176312;26;2745439;-75
2024/04/15 02:43:22;;;;;;;;;2.50;2.50;;;;;13.62;53.13;101612.44;2183528;25;2737774;-74
2024/04/15 02:44:36;;;;;;;;;4.67;3.00;;;;;13.60;52.94;101607.22;2180770;26;2750307;-74
2024/04/15 02:45:50;;;;;;;;;5.50;2.00;;;;;13.61;52.99;101613.34;2181294;26;2746047;-74
2024/04/15 02:47:04;;;;;;;;;3.17;2.17;;;;;13.59;53.78;101613.41;2183188;26;2740919;-75
2024/04/15 02:48:18;;;;;;;;;4.83;3.00;;;;;13.59;53.93;101612.53;2182487;25;2742953;-74
2024/04/15 02:49:31;;;;;;;;;2.00;1.83;;;;;13.60;53.51;101616.91;2181282;26;2730488;-75
2024/04/15 02:50:45;;;;;;;;;9.00;2.33;;;;;13.60;53.86;101609.00;2180701;26;2755707;-75
2024/04/15 02:51:59;;;;;;;;;2.83;2.17;;;;;13.58;53.90;101606.38;2181414;26;2746307;-75
2024/04/15 02:53:12;;;;;;;;;2.50;2.50;;;;;13.60;53.71;101619.56;2181997;25;2743982;-74
2024/04/15 02:54:26;;;;;;;;;3.50;2.50;;;;;13.63;53.62;101619.44;2181224;26;2746068;-75
2024/04/15 02:55:42;;;;;;;;;3.00;2.67;;;;;13.59;53.51;101618.69;2180794;26;2739803;-74
2024/04/15 02:56:55;;;;;;;;;3.83;2.83;;;;;13.58;53.40;101622.22;2183104;26;2723182;-75
2024/04/15 02:58:09;;;;;;;;;3.83;2.83;;;;;13.57;54.23;101622.28;2166837;26;2739791;-74
2024/04/15 02:59:23;;;;;;;;;1.67;1.67;;;;;13.56;53.75;101620.50;2194212;26;2734634;-74
2024/04/15 03:00:37;;;;;;;;;3.17;2.67;;;;;13.55;53.76;101626.72;2180523;26;2732509;-75
2024/04/15 03:01:50;;;;;;;;;3.00;1.83;;;;;13.54;53.59;101627.63;2183333;26;2740834;-75
2024/04/15 03:03:04;;;;;;;;;1.83;1.83;;;;;13.52;54.13;101619.75;2181927;26;2741879;-74
2024/04/15 03:04:18;;;;;;;;;4.67;3.67;;;;;13.54;53.62;101622.34;2170111;26;2737720;-75
2024/04/15 03:05:33;;;;;;;;;3.00;2.50;;;;;13.52;53.53;101621.53;2181561;26;2748166;-74
2024/04/15 03:06:46;;;;;;;;;2.33;2.17;;;;;13.50;54.00;101625.09;2201594;26;2746057;-74
2024/04/15 03:08:00;;;;;;;;;3.50;2.33;;;;;13.48;53.95;101628.69;2168238;26;2739053;-74
2024/04/15 03:09:14;;;;;;;;;2.17;1.00;;;;;13.46;53.59;101618.16;2183271;25;2738215;-75
2024/04/15 03:10:28;;;;;;;;;3.17;2.00;;;;;13.49;53.78;101617.22;2184129;26;2729370;-75
2024/04/15 03:11:41;;;;;;;;;3.83;1.33;;;;;13.52;53.93;101627.69;2181828;26;2740834;-75
2024/04/15 03:12:55;;;;;;;;;3.33;3.00;;;;;13.55;53.93;101618.81;2181188;26;2746042;-75
2024/04/15 03:14:09;;;;;;;;;3.00;2.00;;;;;13.57;54.31;101623.16;2184755;25;2740340;-74
2024/04/15 03:15:23;;;;;;;;;5.17;2.00;;;;;13.61;53.60;101626.56;2182577;26;2741935;-75
2024/04/15 03:16:37;;;;;;;;;3.67;2.33;;;;;13.64;54.31;101625.59;2182613;26;2737110;-75
2024/04/15 03:17:48;;;;;;;;;3.67;3.67;;;;;13.62;53.96;101623.00;2144146;26;2737726;-75
2024/04/15 03:19:02;;;;;;;;;2.67;1.17;;;;;13.60;54.25;101624.84;2181445;26;2737753;-75
2024/04/15 03:20:16;;;;;;;;;1.00;1.00;;;;;13.62;54.46;101623.00;2155814;26;2737715;-75
2024/04/15 03:21:30;;;;;;;;;1.67;1.67;;;;;13.63;54.97;101624.72;2182338;26;2739814;-75
2024/04/15 03:22:49;;;;;;;;;6.33;2.00;;;;;13.64;54.68;101615.91;2170197;26;2754391;-75
2024/04/15 03:24:03;;;;;;;;;1.67;1.67;;;;;13.63;54.94;101619.44;2163672;26;2740866;-75
2024/04/15 03:25:18;;;;;;;;;4.00;1.50;;;;;13.66;54.92;101618.47;2169160;26;2748113;-75
2024/04/15 03:26:32;;;;;;;;;3.83;1.00;;;;;13.64;54.37;101618.53;2183007;26;2741906;-75
2024/04/15 03:27:47;;;;;;;;;1.00;1.00;;;;;13.64;54.95;101626.47;2182473;25;2733533;-75
2024/04/15 03:29:00;;;;;;;;;2.33;1.67;;;;;13.62;54.90;101615.09;2182883;25;2735933;-75
2024/04/15 03:30:14;;;;;;;;;5.00;4.00;;;;;13.65;54.62;101616.78;2183264;25;2735654;-75
2024/04/15 03:31:28;;;;;;;;;2.67;1.00;;;;;13.64;54.72;101615.03;2210650;25;2730417;-75
2024/04/15 03:32:42;;;;;;;;;1.67;1.00;;;;;13.61;54.43;101616.00;2182709;25;2740212;-74
2024/04/15 03:33:56;;;;;;;;;2.67;2.00;;;;;13.61;55.38;101616.84;2184141;26;2737705;-75
2024/04/15 03:35:16;;;;;;;;;3.00;1.50;;;;;13.59;55.22;101601.97;2181559;26;2738744;-75
2024/04/15 03:36:29;;;;;;;;;2.50;2.50;;;;;13.60;55.30;101596.66;2183373;26;2740834;-75
2024/04/15 03:37:43;;;;;;;;;2.50;1.00;;;;;13.63;54.70;101602.75;2171686;26;2736683;-75
2024/04/15 03:38:57;;;;;;;;;4.83;2.17;;;;;13.58;54.72;101598.47;2170725;26;2734584;-74
2024/04/15 03:40:11;;;;;;;;;6.50;1.50;;;;;13.58;54.76;101594.97;2183622;26;2737741;-74
2024/04/15 03:41:25;;;;;;;;;1.50;1.33;;;;;13.57;55.50;101585.31;2183151;25;2739850;-74
2024/04/15 03:42:38;;;;;;;;;4.00;1.33;;;;;13.54;55.29;101588.00;2184167;25;2737700;-75
2024/04/15 03:43:52;;;;;;;;;2.83;1.00;;;;;13.50;55.45;101579.34;2182935;26;2738076;-74
2024/04/15 03:45:06;;;;;;;;;2.33;2.00;;;;;13.48;55.53;101583.81;2182413;26;2737717;-75
2024/04/15 03:46:20;;;;;;;;;3.33;1.67;;;;;13.47;54.88;101590.84;2183778;26;2741879;-75
2024/04/15 03:47:33;;;;;;;;;1.17;1.00;;;;;13.42;55.66;101590.13;2180746;26;2735641;-74
2024/04/15 03:48:47;;;;;;;;;4.00;3.17;;;;;13.31;55.14;101593.09;2172925;26;2734599;-74
2024/04/15 03:50:01;;;;;;;;;2.67;2.17;;;;;13.30;55.28;101594.03;2168470;26;2739776;-75
2024/04/15 03:51:15;;;;;;;;;2.83;2.00;;;;;13.26;55.80;101595.88;2169629;26;2746070;-75
2024/04/15 03:52:26;;;;;;;;;7.00;3.00;;;;;13.25;55.72;101595.94;2156246;25;2746040;-74
2024/04/15 03:53:39;;;;;;;;;2.50;1.83;;;;;13.21;55.56;101587.22;2208705;25;2742344;-74
2024/04/15 03:54:53;;;;;;;;;3.33;1.00;;;;;13.22;55.98;101578.41;2206834;25;2745008;-74
2024/04/15 03:56:04;;;;;;;;;5.33;3.33;;;;;13.24;55.59;101575.72;2154808;25;2750224;-75
2024/04/15 03:57:18;;;;;;;;;5.33;2.83;;;;;13.22;55.77;101570.50;2209125;25;2733535;-74
2024/04/15 03:58:32;;;;;;;;;4.17;3.33;;;;;13.21;56.05;101570.56;2182632;26;2733551;-74
2024/04/15 03:59:46;;;;;;;;;3.83;3.67;;;;;13.18;55.30;101573.28;2169751;26;2732488;-75
2024/04/15 04:01:00;;;;;;;;;1.17;1.17;;;;;13.16;56.09;101573.34;2181676;26;2734596;-74
2024/04/15 04:02:14;;;;;;;;;2.83;2.00;;;;;13.07;56.25;101569.19;2167122;26;2741891;-74
2024/04/15 04:03:28;;;;;;;;;2.00;2.00;;;;;13.05;56.32;101569.25;2155540;26;2743994;-74
2024/04/15 04:04:42;;;;;;;;;2.00;2.00;;;;;13.08;56.36;101575.34;2169626;26;2731436;-74
2024/04/15 04:05:56;;;;;;;;;4.00;3.50;;;;;13.08;56.37;101567.41;2168832;26;2738766;-74
2024/04/15 04:07:10;;;;;;;;;5.00;2.67;;;;;13.10;56.59;101568.22;2155885;26;2737689;-75
2024/04/15 04:08:23;;;;;;;;;4.67;2.33;;;;;13.09;56.15;101572.63;2155373;26;2740874;-74
2024/04/15 04:09:37;;;;;;;;;3.00;2.00;;;;;13.10;56.29;101576.16;2169783;26;2741892;-74
2024/04/15 04:10:51;;;;;;;;;3.00;2.33;;;;;13.07;56.29;101569.19;2182117;26;2729394;-75
2024/04/15 04:12:05;;;;;;;;;4.00;2.17;;;;;13.07;56.53;101566.56;2180450;26;2744030;-75
2024/04/15 04:13:18;;;;;;;;;3.17;2.00;;;;;13.07;56.80;101569.19;2181685;25;2746124;-75
2024/04/15 04:14:29;;;;;;;;;3.00;2.00;;;;;13.05;56.48;101574.53;2154607;25;2754355;-75
2024/04/15 04:15:44;;;;;;;;;1.33;1.33;;;;;13.08;56.59;101576.22;2208496;25;2740858;-74
2024/04/15 04:16:58;;;;;;;;;7.00;2.00;;;;;13.09;56.18;101569.16;2209205;26;2737708;-74
2024/04/15 04:18:09;;;;;;;;;7.67;2.67;;;;;13.04;56.02;101564.00;2140656;26;3465831;-74
2024/04/15 04:19:24;;;;;;;;;4.00;2.00;;;;;13.03;56.73;101557.88;2194699;26;2735625;-75
2024/04/15 04:20:38;;;;;;;;;4.50;3.83;;;;;13.03;56.65;101565.78;2210878;25;2746085;-75
2024/04/15 04:21:52;;;;;;;;;2.83;1.50;;;;;13.00;56.36;101562.38;2181776;26;2727301;-75
2024/04/15 04:23:06;;;;;;;;;2.83;1.33;;;;;13.01;56.57;101575.50;2168923;26;2738799;-75
2024/04/15 04:24:19;;;;;;;;;3.50;1.50;;;;;12.98;56.72;101569.47;2173632;26;2746478;-75
2024/04/15 04:25:33;;;;;;;;;3.50;2.17;;;;;12.98;56.63;101565.06;2170021;26;2733557;-75
2024/04/15 04:26:47;;;;;;;;;4.33;2.00;;;;;12.94;56.49;101568.69;2169850;26;2735648;-75
2024/04/15 04:28:01;;;;;;;;;3.17;2.33;;;;;12.93;57.04;101572.25;2168932;26;2739800;-75
2024/04/15 04:29:14;;;;;;;;;3.67;2.33;;;;;12.93;56.67;101566.97;2167646;26;2732517;-75
2024/04/15 04:30:28;;;;;;;;;2.50;2.00;;;;;12.91;56.98;101569.63;2167564;26;2729403;-75
2024/04/15 04:31:42;;;;;;;;;3.33;3.33;;;;;12.91;56.58;101576.72;2167210;26;2739835;-75
2024/04/15 04:32:56;;;;;;;;;4.50;2.00;;;;;12.90;56.95;101574.97;2169268;26;2732524;-75
2024/04/15 04:34:09;;;;;;;;;2.67;2.50;;;;;12.87;56.81;101578.56;2168396;26;2749151;-75
2024/04/15 04:35:23;;;;;;;;;3.67;2.00;;;;;12.87;56.85;101575.06;2191591;26;2743956;-75
2024/04/15 04:36:37;;;;;;;;;1.33;1.33;;;;;12.86;56.61;101574.22;2206659;26;2729679;-75
2024/04/15 04:37:51;;;;;;;;;2.00;1.17;;;;;12.88;56.47;101577.66;2171313;25;2733816;-75
2024/04/15 04:39:04;;;;;;;;;2.83;2.83;;;;;12.85;57.07;101569.84;2182779;25;2748137;-74
2024/04/15 04:40:18;;;;;;;;;3.00;2.17;;;;;12.85;56.71;101580.38;2182215;26;2746553;-72
2024/04/15 04:41:32;;;;;;;;;2.50;2.50;;;;;12.80;56.78;101580.53;2178928;25;2730845;-74
2024/04/15 04:42:47;;;;;;;;;2.00;2.00;;;;;12.82;57.07;101585.75;2168888;26;2746084;-75
2024/04/15 04:44:01;;;;;;;;;2.33;1.67;;;;;12.81;56.78;101590.19;2169791;26;2734569;-74
2024/04/15 04:45:15;;;;;;;;;1.67;0.67;;;;;12.77;56.90;101583.25;2168678;26;2735676;-75
2024/04/15 04:46:26;;;;;;;;;3.00;2.00;;;;;12.77;56.72;101574.47;2141593;26;2754409;-75
2024/04/15 04:47:39;;;;;;;;;5.17;2.00;;;;;12.72;57.46;101566.69;2194751;26;2750324;-75
2024/04/15 04:48:53;;;;;;;;;2.00;2.00;;;;;12.72;57.31;101550.84;2202301;25;2748131;-75
2024/04/15 04:50:07;;;;;;;;;3.17;3.00;;;;;12.76;57.52;101555.16;2196075;25;2733590;-75
2024/04/15 04:51:21;;;;;;;;;4.33;3.17;;;;;12.77;56.94;101559.50;2181582;26;2754370;-75
2024/04/15 04:52:34;;;;;;;;;2.33;2.00;;;;;12.76;56.95;101555.16;2169094;26;2740909;-74
2024/04/15 04:53:48;;;;;;;;;3.83;2.33;;;;;12.75;57.17;101557.81;2172537;26;2738750;-74
2024/04/15 04:55:02;;;;;;;;;2.83;2.17;;;;;12.76;57.16;101563.06;2183447;26;2736663;-75
2024/04/15 04:56:16;;;;;;;;;4.83;2.17;;;;;12.74;57.57;101554.31;2181576;26;2736696;-75
2024/04/15 04:57:29;;;;;;;;;4.17;1.67;;;;;12.75;57.37;101557.81;2169150;26;2744498;-75
2024/04/15 04:58:44;;;;;;;;;3.00;1.83;;;;;12.76;57.66;101562.19;2166677;26;2736934;-75
2024/04/15 04:59:58;;;;;;;;;2.50;1.67;;;;;12.75;56.94;101555.16;2196403;26;2732516;-75
2024/04/15 05:01:13;;;;;;;;;3.00;2.17;;;;;12.71;57.50;101557.06;2168629;26;2735602;-75
2024/04/15 05:02:27;;;;;;;;;2.00;1.50;;;;;12.71;57.35;101559.69;2168435;26;2748443;-75
2024/04/15 05:03:45;;;;;;;;;3.17;2.67;;;;;12.68;57.14;101554.50;2171389;26;2734583;-75
2024/04/15 05:04:59;;;;;;;;;2.17;2.00;;;;;12.65;57.17;101547.53;2157632;26;2748131;-75
2024/04/15 05:06:15;;;;;;;;;2.83;1.83;;;;;12.63;57.19;101551.13;2169221;26;2728387;-74
2024/04/15 05:07:28;;;;;;;;;4.17;1.83;;;;;12.63;57.40;101553.75;2170744;26;2733642;-74
2024/04/15 05:08:44;;;;;;;;;1.50;1.50;;;;;12.63;57.62;101552.00;2181273;26;2743953;-75
2024/04/15 05:09:58;;;;;;;;;2.00;1.00;;;;;12.59;57.69;101545.94;2182179;26;2741895;-75
2024/04/15 05:11:11;;;;;;;;;1.67;0.67;;;;;12.59;57.78;101548.56;2178106;26;2736663;-75
2024/04/15 05:12:25;;;;;;;;;2.33;1.67;;;;;12.57;57.82;101549.50;2169960;26;2737732;-75
2024/04/15 05:13:39;;;;;;;;;2.50;1.83;;;;;12.58;57.74;101557.41;2176586;26;2746030;-75
2024/04/15 05:14:53;;;;;;;;;3.00;2.00;;;;;12.52;57.60;101549.66;2167996;26;2739820;-75
2024/04/15 05:16:11;;;;;;;;;4.17;2.00;;;;;12.53;57.33;101561.94;2167923;26;2737772;-75
2024/04/15 05:17:25;;;;;;;;;3.00;1.50;;;;;12.49;57.63;101557.66;2168260;26;2728390;-74
2024/04/15 05:18:43;;;;;;;;;1.67;1.67;;;;;12.48;57.77;101555.91;2181235;26;2746054;-75
2024/04/15 05:19:56;;;;;;;;;1.33;1.33;;;;;12.46;57.42;101548.06;2178001;25;2743990;-75
2024/04/15 05:21:19;;;;;;;;;0.50;0.50;;;;;12.47;57.32;101543.66;2168602;26;2731458;-75
2024/04/15 05:22:32;;;;;;;;;3.83;2.33;;;;;12.45;57.61;101534.91;2170444;26;2743962;-75
2024/04/15 05:23:49;;;;;;;;;1.67;1.67;;;;;12.48;58.15;101537.47;2177314;26;2739806;-75
2024/04/15 05:25:03;;;;;;;;;2.00;2.00;;;;;12.49;58.05;101531.31;2183359;26;2736696;-75
2024/04/15 05:26:17;;;;;;;;;3.83;2.50;;;;;12.48;57.86;101538.34;2174718;26;2739808;-75
2024/04/15 05:27:35;;;;;;;;;7.00;3.17;;;;;12.46;57.83;101526.09;2161225;26;2739823;-74
2024/04/15 05:28:48;;;;;;;;;3.33;2.67;;;;;12.43;57.36;101526.19;2183501;26;2737987;-74
2024/04/15 05:30:02;;;;;;;;;2.17;2.17;;;;;12.38;57.72;101523.69;2182464;26;2741879;-74
2024/04/15 05:31:16;;;;;;;;;3.33;2.33;;;;;12.34;57.71;101525.56;2175167;26;2737799;-75
2024/04/15 05:32:30;;;;;;;;;4.67;3.00;;;;;12.34;58.09;101530.81;2167779;26;2750213;-75
2024/04/15 05:33:43;;;;;;;;;0.67;0.67;;;;;12.34;58.41;101525.56;2174416;26;2736644;-75
2024/04/15 05:34:57;;;;;;;;;2.17;1.17;;;;;12.33;58.25;101528.22;2182189;25;2744005;-75
2024/04/15 05:36:11;;;;;;;;;2.33;1.67;;;;;12.32;58.13;101524.69;2180415;26;2743960;-75